sensor_id;sensor_type;location;lat;lon;timestamp;pressure;altitude;pressure_sealevel;temperature;humidity
16690;BME280;8458;52.220;9.884;2022-11-23T00:01:11;99167.72;;;6.71;87.02
16690;BME280;8458;52.220;9.884;2022-11-23T00:03:38;99160.59;;;6.70;87.51
16690;BME280;8458;52.220;9.884;2022-11-23T00:06:04;99161.69;;;6.69;87.51
16690;BME280;8458;52.220;9.884;2022-11-23T00:08:31;99169.41;;;6.67;87.20
16690;BME280;8458;52.220;9.884;2022-11-23T00:10:57;99179.84;;;6.59;87.68
16690;BME280;8458;52.220;9.884;2022-11-23T00:13:25;99166.63;;;6.56;87.95
16690;BME280;8458;52.220;9.884;2022-11-23T00:15:52;99169.69;;;6.44;88.56
16690;BME280;8458;52.220;9.884;2022-11-23T00:18:18;99167.75;;;6.45;88.83
16690;BME280;8458;52.220;9.884;2022-11-23T00:20:45;99168.84;;;6.34;89.20
16690;BME280;8458;52.220;9.884;2022-11-23T00:23:11;99174.31;;;6.28;89.66
16690;BME280;8458;52.220;9.884;2022-11-23T00:25:38;99178.72;;;6.24;90.09
16690;BME280;8458;52.220;9.884;2022-11-23T00:28:04;99178.16;;;6.17;90.50
16690;BME280;8458;52.220;9.884;2022-11-23T00:30:33;99187.50;;;6.11;91.45
16690;BME280;8458;52.220;9.884;2022-11-23T00:32:59;99177.88;;;6.19;91.81
16690;BME280;8458;52.220;9.884;2022-11-23T00:35:26;99179.53;;;6.15;91.53
16690;BME280;8458;52.220;9.884;2022-11-23T00:37:52;99170.19;;;6.10;91.76
16690;BME280;8458;52.220;9.884;2022-11-23T00:40:19;99167.97;;;6.13;92.16
16690;BME280;8458;52.220;9.884;2022-11-23T00:42:45;99171.00;;;6.06;92.83
16690;BME280;8458;52.220;9.884;2022-11-23T00:45:12;99165.50;;;6.11;92.76
16690;BME280;8458;52.220;9.884;2022-11-23T00:47:39;99161.63;;;6.02;93.40
16690;BME280;8458;52.220;9.884;2022-11-23T00:50:06;99164.38;;;5.97;93.91
16690;BME280;8458;52.220;9.884;2022-11-23T00:52:33;99164.31;;;5.91;94.86
16690;BME280;8458;52.220;9.884;2022-11-23T00:54:59;99165.16;;;5.92;94.58
16690;BME280;8458;52.220;9.884;2022-11-23T00:57:26;99162.38;;;5.87;95.27
16690;BME280;8458;52.220;9.884;2022-11-23T00:59:52;99167.59;;;5.83;95.45
16690;BME280;8458;52.220;9.884;2022-11-23T01:02:19;99164.28;;;5.81;95.16
16690;BME280;8458;52.220;9.884;2022-11-23T01:04:46;99163.75;;;5.84;95.43
16690;BME280;8458;52.220;9.884;2022-11-23T01:07:13;99160.44;;;5.82;95.88
16690;BME280;8458;52.220;9.884;2022-11-23T01:09:39;99155.78;;;5.83;95.45
16690;BME280;8458;52.220;9.884;2022-11-23T01:12:06;99155.47;;;5.79;95.69
16690;BME280;8458;52.220;9.884;2022-11-23T01:14:32;99160.97;;;5.79;95.87
16690;BME280;8458;52.220;9.884;2022-11-23T01:16:59;99151.34;;;5.87;95.86
16690;BME280;8458;52.220;9.884;2022-11-23T01:19:25;99154.38;;;5.85;95.45
16690;BME280;8458;52.220;9.884;2022-11-23T01:21:53;99158.78;;;5.86;95.73
16690;BME280;8458;52.220;9.884;2022-11-23T01:24:21;99161.28;;;5.93;95.71
16690;BME280;8458;52.220;9.884;2022-11-23T01:26:50;99162.91;;;5.84;95.95
16690;BME280;8458;52.220;9.884;2022-11-23T01:29:16;99162.09;;;5.78;96.53
16690;BME280;8458;52.220;9.884;2022-11-23T01:31:43;99166.47;;;5.79;96.66
16690;BME280;8458;52.220;9.884;2022-11-23T01:34:11;99173.09;;;5.83;96.70
16690;BME280;8458;52.220;9.884;2022-11-23T01:36:39;99185.72;;;5.79;96.31
16690;BME280;8458;52.220;9.884;2022-11-23T01:39:07;99179.09;;;5.70;96.94
16690;BME280;8458;52.220;9.884;2022-11-23T01:41:36;99171.41;;;5.72;96.69
16690;BME280;8458;52.220;9.884;2022-11-23T01:44:24;99174.72;;;5.74;96.81
16690;BME280;8458;52.220;9.884;2022-11-23T01:46:51;99170.28;;;5.68;97.03
16690;BME280;8458;52.220;9.884;2022-11-23T01:49:19;99182.97;;;5.79;97.04
16690;BME280;8458;52.220;9.884;2022-11-23T01:51:48;99183.50;;;5.76;97.06
16690;BME280;8458;52.220;9.884;2022-11-23T01:54:21;99191.78;;;5.81;97.00
16690;BME280;8458;52.220;9.884;2022-11-23T01:56:51;99192.88;;;5.85;96.64
16690;BME280;8458;52.220;9.884;2022-11-23T01:59:20;99194.63;;;5.97;96.34
16690;BME280;8458;52.220;9.884;2022-11-23T02:01:48;99198.44;;;5.90;95.68
16690;BME280;8458;52.220;9.884;2022-11-23T02:04:18;99191.59;;;5.98;95.92
16690;BME280;8458;52.220;9.884;2022-11-23T02:06:48;99193.47;;;5.92;95.96
16690;BME280;8458;52.220;9.884;2022-11-23T02:09:16;99192.13;;;5.95;95.50
16690;BME280;8458;52.220;9.884;2022-11-23T02:11:43;99194.56;;;5.91;96.04
16690;BME280;8458;52.220;9.884;2022-11-23T02:14:09;99197.94;;;5.99;95.73
16690;BME280;8458;52.220;9.884;2022-11-23T02:16:36;99199.59;;;6.00;95.59
16690;BME280;8458;52.220;9.884;2022-11-23T02:19:05;99192.44;;;5.99;95.28
16690;BME280;8458;52.220;9.884;2022-11-23T02:21:33;99195.19;;;6.04;94.99
16690;BME280;8458;52.220;9.884;2022-11-23T02:24:03;99199.06;;;6.03;94.66
16690;BME280;8458;52.220;9.884;2022-11-23T02:26:35;99197.97;;;6.09;94.27
16690;BME280;8458;52.220;9.884;2022-11-23T02:29:04;99198.78;;;6.09;93.27
16690;BME280;8458;52.220;9.884;2022-11-23T02:31:31;99191.38;;;6.15;93.11
16690;BME280;8458;52.220;9.884;2022-11-23T02:33:57;99187.78;;;6.09;93.28
16690;BME280;8458;52.220;9.884;2022-11-23T02:36:36;99198.50;;;6.06;93.76
16690;BME280;8458;52.220;9.884;2022-11-23T02:39:08;99195.75;;;6.11;94.24
16690;BME280;8458;52.220;9.884;2022-11-23T02:41:39;99195.22;;;6.14;94.32
16690;BME280;8458;52.220;9.884;2022-11-23T02:44:11;99186.41;;;6.12;94.52
16690;BME280;8458;52.220;9.884;2022-11-23T02:46:39;99190.53;;;6.15;94.45
16690;BME280;8458;52.220;9.884;2022-11-23T02:49:06;99179.53;;;6.15;94.95
16690;BME280;8458;52.220;9.884;2022-11-23T02:51:32;99181.47;;;6.14;95.04
16690;BME280;8458;52.220;9.884;2022-11-23T02:53:59;99183.66;;;6.17;95.33
16690;BME280;8458;52.220;9.884;2022-11-23T02:56:25;99176.50;;;6.16;95.65
16690;BME280;8458;52.220;9.884;2022-11-23T02:58:53;99186.97;;;6.14;96.27
16690;BME280;8458;52.220;9.884;2022-11-23T03:01:20;99181.22;;;6.26;95.84
16690;BME280;8458;52.220;9.884;2022-11-23T03:03:46;99190.28;;;6.21;96.08
16690;BME280;8458;52.220;9.884;2022-11-23T03:06:12;99187.25;;;6.33;95.72
16690;BME280;8458;52.220;9.884;2022-11-23T03:08:39;99188.94;;;6.34;95.44
16690;BME280;8458;52.220;9.884;2022-11-23T03:11:05;99194.41;;;6.24;95.98
16690;BME280;8458;52.220;9.884;2022-11-23T03:13:32;99190.88;;;6.34;96.01
16690;BME280;8458;52.220;9.884;2022-11-23T03:16:00;99194.44;;;6.34;96.05
16690;BME280;8458;52.220;9.884;2022-11-23T03:18:26;99183.69;;;6.33;96.04
16690;BME280;8458;52.220;9.884;2022-11-23T03:20:52;99183.69;;;6.38;96.00
16690;BME280;8458;52.220;9.884;2022-11-23T03:23:19;99191.69;;;6.34;96.24
16690;BME280;8458;52.220;9.884;2022-11-23T03:25:53;99187.56;;;6.47;96.29
16690;BME280;8458;52.220;9.884;2022-11-23T03:28:20;99184.81;;;6.47;96.50
16690;BME280;8458;52.220;9.884;2022-11-23T03:30:46;99185.34;;;6.44;96.47
16690;BME280;8458;52.220;9.884;2022-11-23T03:33:14;99184.25;;;6.45;96.86
16690;BME280;8458;52.220;9.884;2022-11-23T03:35:40;99178.75;;;6.50;97.07
16690;BME280;8458;52.220;9.884;2022-11-23T03:38:07;99177.66;;;6.51;97.14
16690;BME280;8458;52.220;9.884;2022-11-23T03:40:34;99179.31;;;6.57;96.88
16690;BME280;8458;52.220;9.884;2022-11-23T03:43:00;99173.81;;;6.52;96.83
16690;BME280;8458;52.220;9.884;2022-11-23T03:45:27;99170.22;;;6.57;97.01
16690;BME280;8458;52.220;9.884;2022-11-23T03:47:53;99177.09;;;6.64;96.56
16690;BME280;8458;52.220;9.884;2022-11-23T03:50:21;99183.41;;;6.60;96.15
16690;BME280;8458;52.220;9.884;2022-11-23T03:52:48;99173.25;;;6.66;96.12
16690;BME280;8458;52.220;9.884;2022-11-23T03:55:15;99179.28;;;6.68;95.95
16690;BME280;8458;52.220;9.884;2022-11-23T03:57:41;99182.59;;;6.64;95.97
16690;BME280;8458;52.220;9.884;2022-11-23T04:00:09;99188.41;;;6.68;95.92
16690;BME280;8458;52.220;9.884;2022-11-23T04:02:35;99182.59;;;6.64;95.59
16690;BME280;8458;52.220;9.884;2022-11-23T04:05:02;99179.03;;;6.59;95.90
16690;BME280;8458;52.220;9.884;2022-11-23T04:07:29;99184.53;;;6.59;95.55
16690;BME280;8458;52.220;9.884;2022-11-23T04:09:56;99179.31;;;6.62;95.68
16690;BME280;8458;52.220;9.884;2022-11-23T04:12:23;99182.31;;;6.66;95.37
16690;BME280;8458;52.220;9.884;2022-11-23T04:14:50;99180.97;;;6.63;95.15
16690;BME280;8458;52.220;9.884;2022-11-23T04:17:17;99178.47;;;6.62;95.24
16690;BME280;8458;52.220;9.884;2022-11-23T04:19:43;99180.66;;;6.60;95.27
16690;BME280;8458;52.220;9.884;2022-11-23T04:22:10;99178.75;;;6.66;95.29
16690;BME280;8458;52.220;9.884;2022-11-23T04:24:38;99176.28;;;6.54;96.00
16690;BME280;8458;52.220;9.884;2022-11-23T04:27:04;99175.16;;;6.60;95.93
16690;BME280;8458;52.220;9.884;2022-11-23T04:29:30;99179.03;;;6.54;95.75
16690;BME280;8458;52.220;9.884;2022-11-23T04:31:57;99183.16;;;6.51;96.11
16690;BME280;8458;52.220;9.884;2022-11-23T04:34:23;99185.09;;;6.51;96.01
16690;BME280;8458;52.220;9.884;2022-11-23T04:36:50;99189.22;;;6.48;95.75
16690;BME280;8458;52.220;9.884;2022-11-23T04:39:16;99191.97;;;6.53;96.24
16690;BME280;8458;52.220;9.884;2022-11-23T04:41:44;99190.88;;;6.49;96.20
16690;BME280;8458;52.220;9.884;2022-11-23T04:44:10;99196.38;;;6.49;96.18
16690;BME280;8458;52.220;9.884;2022-11-23T04:46:37;99191.97;;;6.53;95.97
16690;BME280;8458;52.220;9.884;2022-11-23T04:49:03;99194.44;;;6.55;95.36
16690;BME280;8458;52.220;9.884;2022-11-23T04:51:30;99182.06;;;6.57;95.76
16690;BME280;8458;52.220;9.884;2022-11-23T04:53:56;99184.53;;;6.59;95.74
16690;BME280;8458;52.220;9.884;2022-11-23T04:56:23;99193.09;;;6.52;95.30
16690;BME280;8458;52.220;9.884;2022-11-23T04:58:51;99191.69;;;6.44;95.63
16690;BME280;8458;52.220;9.884;2022-11-23T05:01:17;99190.88;;;6.49;95.49
16690;BME280;8458;52.220;9.884;2022-11-23T05:03:44;99187.00;;;6.50;95.59
16690;BME280;8458;52.220;9.884;2022-11-23T05:06:10;99190.88;;;6.59;95.50
16690;BME280;8458;52.220;9.884;2022-11-23T05:08:36;99189.25;;;6.58;95.33
16690;BME280;8458;52.220;9.884;2022-11-23T05:11:03;99195.28;;;6.50;95.19
16690;BME280;8458;52.220;9.884;2022-11-23T05:13:30;99201.34;;;6.62;94.99
16690;BME280;8458;52.220;9.884;2022-11-23T05:15:57;99201.06;;;6.59;94.43
16690;BME280;8458;52.220;9.884;2022-11-23T05:18:24;99195.84;;;6.57;94.63
16690;BME280;8458;52.220;9.884;2022-11-23T05:20:50;99202.44;;;6.56;94.70
16690;BME280;8458;52.220;9.884;2022-11-23T05:23:17;99201.06;;;6.59;95.08
16690;BME280;8458;52.220;9.884;2022-11-23T05:25:44;99201.88;;;6.54;94.74
16690;BME280;8458;52.220;9.884;2022-11-23T05:28:14;99201.88;;;6.59;94.91
16690;BME280;8458;52.220;9.884;2022-11-23T05:30:40;99203.56;;;6.60;94.78
16690;BME280;8458;52.220;9.884;2022-11-23T05:33:08;99203.56;;;6.60;95.07
16690;BME280;8458;52.220;9.884;2022-11-23T05:35:35;99199.66;;;6.61;94.83
16690;BME280;8458;52.220;9.884;2022-11-23T05:38:01;99203.81;;;6.59;95.23
16690;BME280;8458;52.220;9.884;2022-11-23T05:40:28;99203.28;;;6.57;95.15
16690;BME280;8458;52.220;9.884;2022-11-23T05:42:55;99208.50;;;6.63;95.19
16690;BME280;8458;52.220;9.884;2022-11-23T05:45:22;99212.91;;;6.59;94.85
16690;BME280;8458;52.220;9.884;2022-11-23T05:47:49;99206.84;;;6.52;95.32
16690;BME280;8458;52.220;9.884;2022-11-23T05:50:18;99211.53;;;6.57;95.56
16690;BME280;8458;52.220;9.884;2022-11-23T05:52:45;99206.28;;;6.66;95.52
16690;BME280;8458;52.220;9.884;2022-11-23T05:55:11;99213.47;;;6.67;95.36
16690;BME280;8458;52.220;9.884;2022-11-23T05:57:38;99211.53;;;6.72;95.36
16690;BME280;8458;52.220;9.884;2022-11-23T06:00:05;99210.16;;;6.75;95.02
16690;BME280;8458;52.220;9.884;2022-11-23T06:02:34;99211.78;;;6.71;95.38
16690;BME280;8458;52.220;9.884;2022-11-23T06:05:00;99217.31;;;6.71;95.03
16690;BME280;8458;52.220;9.884;2022-11-23T06:07:28;99209.63;;;6.73;95.30
16690;BME280;8458;52.220;9.884;2022-11-23T06:09:56;99220.06;;;6.71;95.64
16690;BME280;8458;52.220;9.884;2022-11-23T06:12:23;99211.53;;;6.72;95.69
16690;BME280;8458;52.220;9.884;2022-11-23T06:14:49;99220.91;;;6.71;95.48
16690;BME280;8458;52.220;9.884;2022-11-23T06:17:16;99225.88;;;6.74;95.25
16690;BME280;8458;52.220;9.884;2022-11-23T06:19:42;99220.34;;;6.74;95.29
16690;BME280;8458;52.220;9.884;2022-11-23T06:22:09;99225.31;;;6.77;95.62
16690;BME280;8458;52.220;9.884;2022-11-23T06:24:36;99224.50;;;6.82;95.02
16690;BME280;8458;52.220;9.884;2022-11-23T06:27:03;99226.41;;;6.87;94.79
16690;BME280;8458;52.220;9.884;2022-11-23T06:29:29;99233.03;;;6.86;94.86
16690;BME280;8458;52.220;9.884;2022-11-23T06:31:56;99228.63;;;6.79;94.88
16690;BME280;8458;52.220;9.884;2022-11-23T06:34:22;99237.44;;;6.71;95.00
16690;BME280;8458;52.220;9.884;2022-11-23T06:36:48;99234.38;;;6.62;95.97
16690;BME280;8458;52.220;9.884;2022-11-23T06:39:15;99235.47;;;6.56;96.53
16690;BME280;8458;52.220;9.884;2022-11-23T06:41:44;99237.13;;;6.62;96.42
16690;BME280;8458;52.220;9.884;2022-11-23T06:44:10;99240.47;;;6.70;96.68
16690;BME280;8458;52.220;9.884;2022-11-23T06:46:37;99244.88;;;6.76;96.21
16690;BME280;8458;52.220;9.884;2022-11-23T06:49:03;99245.41;;;6.83;95.87
16690;BME280;8458;52.220;9.884;2022-11-23T06:51:30;99253.41;;;6.90;95.64
16690;BME280;8458;52.220;9.884;2022-11-23T06:53:56;99256.72;;;6.92;95.31
16690;BME280;8458;52.220;9.884;2022-11-23T06:56:22;99248.44;;;6.92;95.07
16690;BME280;8458;52.220;9.884;2022-11-23T06:58:50;99254.25;;;7.00;94.52
16690;BME280;8458;52.220;9.884;2022-11-23T07:01:17;99250.66;;;7.00;94.04
16690;BME280;8458;52.220;9.884;2022-11-23T07:03:43;99255.34;;;6.99;94.32
16690;BME280;8458;52.220;9.884;2022-11-23T07:06:10;99260.84;;;6.99;94.12
16690;BME280;8458;52.220;9.884;2022-11-23T07:08:36;99261.41;;;6.96;93.75
16690;BME280;8458;52.220;9.884;2022-11-23T07:11:08;99263.06;;;6.97;93.54
16690;BME280;8458;52.220;9.884;2022-11-23T07:13:35;99254.78;;;6.92;94.00
16690;BME280;8458;52.220;9.884;2022-11-23T07:16:04;99253.69;;;6.98;93.84
16690;BME280;8458;52.220;9.884;2022-11-23T07:18:31;99266.66;;;6.93;94.24
16690;BME280;8458;52.220;9.884;2022-11-23T07:20:57;99266.38;;;6.94;93.94
16690;BME280;8458;52.220;9.884;2022-11-23T07:23:24;99266.94;;;6.91;94.54
16690;BME280;8458;52.220;9.884;2022-11-23T07:25:51;99268.84;;;6.91;94.32
16690;BME280;8458;52.220;9.884;2022-11-23T07:28:18;99272.69;;;7.00;94.33
16690;BME280;8458;52.220;9.884;2022-11-23T07:30:44;99272.97;;;6.98;94.10
16690;BME280;8458;52.220;9.884;2022-11-23T07:33:12;99275.16;;;7.02;94.08
16690;BME280;8458;52.220;9.884;2022-11-23T07:35:39;99281.81;;;7.06;94.07
16690;BME280;8458;52.220;9.884;2022-11-23T07:38:06;99271.59;;;7.06;93.56
16690;BME280;8458;52.220;9.884;2022-11-23T07:40:35;99280.16;;;7.10;93.24
16690;BME280;8458;52.220;9.884;2022-11-23T07:43:02;99282.91;;;7.10;93.13
16690;BME280;8458;52.220;9.884;2022-11-23T07:45:29;99290.59;;;7.08;93.44
16690;BME280;8458;52.220;9.884;2022-11-23T07:47:57;99287.56;;;7.09;93.56
16690;BME280;8458;52.220;9.884;2022-11-23T07:50:25;99284.00;;;7.14;92.94
16690;BME280;8458;52.220;9.884;2022-11-23T07:52:52;99286.75;;;7.14;93.05
16690;BME280;8458;52.220;9.884;2022-11-23T07:55:18;99294.75;;;7.15;93.44
16690;BME280;8458;52.220;9.884;2022-11-23T07:57:45;99286.22;;;7.12;93.73
16690;BME280;8458;52.220;9.884;2022-11-23T08:00:12;99286.22;;;7.22;93.20
16690;BME280;8458;52.220;9.884;2022-11-23T08:02:39;99278.47;;;7.24;93.05
16690;BME280;8458;52.220;9.884;2022-11-23T08:05:06;99285.66;;;7.25;93.37
16690;BME280;8458;52.220;9.884;2022-11-23T08:07:34;99283.16;;;7.34;93.21
16690;BME280;8458;52.220;9.884;2022-11-23T08:10:00;99289.50;;;7.29;92.92
16690;BME280;8458;52.220;9.884;2022-11-23T08:12:26;99292.53;;;7.23;93.47
16690;BME280;8458;52.220;9.884;2022-11-23T08:14:53;99287.59;;;7.30;93.30
16690;BME280;8458;52.220;9.884;2022-11-23T08:17:19;99290.06;;;7.31;93.34
16690;BME280;8458;52.220;9.884;2022-11-23T08:19:46;99292.56;;;7.33;93.05
16690;BME280;8458;52.220;9.884;2022-11-23T08:22:12;99299.16;;;7.37;93.24
16690;BME280;8458;52.220;9.884;2022-11-23T08:24:40;99290.59;;;7.39;93.11
16690;BME280;8458;52.220;9.884;2022-11-23T08:27:07;99295.00;;;7.45;93.00
16690;BME280;8458;52.220;9.884;2022-11-23T08:29:33;99287.84;;;7.44;92.96
16690;BME280;8458;52.220;9.884;2022-11-23T08:31:59;99304.38;;;7.54;92.44
16690;BME280;8458;52.220;9.884;2022-11-23T08:34:26;99291.69;;;7.53;92.26
16690;BME280;8458;52.220;9.884;2022-11-23T08:36:53;99301.63;;;7.44;93.10
16690;BME280;8458;52.220;9.884;2022-11-23T08:39:19;99305.47;;;7.48;93.18
16690;BME280;8458;52.220;9.884;2022-11-23T08:41:47;99301.06;;;7.52;93.19
16690;BME280;8458;52.220;9.884;2022-11-23T08:44:14;99309.34;;;7.52;93.43
16690;BME280;8458;52.220;9.884;2022-11-23T08:46:40;99299.41;;;7.61;92.62
16690;BME280;8458;52.220;9.884;2022-11-23T08:49:06;99299.66;;;7.65;92.73
16690;BME280;8458;52.220;9.884;2022-11-23T08:51:33;99303.25;;;7.70;93.05
16690;BME280;8458;52.220;9.884;2022-11-23T08:54:00;99298.78;;;7.85;93.87
16690;BME280;8458;52.220;9.884;2022-11-23T08:56:26;99305.91;;;7.96;92.02
16690;BME280;8458;52.220;9.884;2022-11-23T08:58:54;99303.97;;;8.02;91.40
16690;BME280;8458;52.220;9.884;2022-11-23T09:01:21;99302.88;;;7.98;90.49
16690;BME280;8458;52.220;9.884;2022-11-23T09:03:47;99302.06;;;7.97;90.90
16690;BME280;8458;52.220;9.884;2022-11-23T09:06:14;99307.56;;;7.97;91.00
16690;BME280;8458;52.220;9.884;2022-11-23T09:08:40;99315.81;;;8.02;91.22
16690;BME280;8458;52.220;9.884;2022-11-23T09:11:09;99320.78;;;8.11;90.82
16690;BME280;8458;52.220;9.884;2022-11-23T09:13:37;99317.75;;;8.07;90.50
16690;BME280;8458;52.220;9.884;2022-11-23T09:16:06;99315.56;;;8.09;90.24
16690;BME280;8458;52.220;9.884;2022-11-23T09:18:33;99315.81;;;8.13;90.51
16690;BME280;8458;52.220;9.884;2022-11-23T09:21:01;99315.81;;;8.13;89.78
16690;BME280;8458;52.220;9.884;2022-11-23T09:23:28;99320.78;;;8.11;90.43
16690;BME280;8458;52.220;9.884;2022-11-23T09:25:56;99320.19;;;8.19;89.70
16690;BME280;8458;52.220;9.884;2022-11-23T09:28:23;99324.06;;;8.18;89.60
16690;BME280;8458;52.220;9.884;2022-11-23T09:30:52;99317.41;;;8.24;88.63
16690;BME280;8458;52.220;9.884;2022-11-23T09:33:20;99322.91;;;8.34;88.82
16690;BME280;8458;52.220;9.884;2022-11-23T09:35:47;99325.69;;;8.24;89.17
16690;BME280;8458;52.220;9.884;2022-11-23T09:38:20;99322.94;;;8.24;89.32
16690;BME280;8458;52.220;9.884;2022-11-23T09:40:51;99320.72;;;8.26;89.50
16690;BME280;8458;52.220;9.884;2022-11-23T09:43:34;99319.56;;;8.37;88.90
16690;BME280;8458;52.220;9.884;2022-11-23T09:46:10;99329.25;;;8.35;88.93
16690;BME280;8458;52.220;9.884;2022-11-23T09:48:59;99320.09;;;8.39;88.71
16690;BME280;8458;52.220;9.884;2022-11-23T09:51:34;99316.81;;;8.37;88.84
16690;BME280;8458;52.220;9.884;2022-11-23T09:54:04;99321.22;;;8.43;88.42
16690;BME280;8458;52.220;9.884;2022-11-23T09:56:33;99320.66;;;8.47;88.79
16690;BME280;8458;52.220;9.884;2022-11-23T09:59:11;99314.03;;;8.48;88.80
16690;BME280;8458;52.220;9.884;2022-11-23T10:01:39;99325.06;;;8.53;88.16
16690;BME280;8458;52.220;9.884;2022-11-23T10:04:08;99321.75;;;8.51;89.03
16690;BME280;8458;52.220;9.884;2022-11-23T10:06:42;99325.63;;;8.50;88.82
16690;BME280;8458;52.220;9.884;2022-11-23T10:09:18;99322.28;;;8.53;88.17
16690;BME280;8458;52.220;9.884;2022-11-23T10:12:01;99327.50;;;8.59;88.53
16690;BME280;8458;52.220;9.884;2022-11-23T10:14:40;99322.81;;;8.55;88.87
16690;BME280;8458;52.220;9.884;2022-11-23T10:17:16;99322.81;;;8.60;88.94
16690;BME280;8458;52.220;9.884;2022-11-23T10:20:00;99331.91;;;8.60;89.30
16690;BME280;8458;52.220;9.884;2022-11-23T10:22:33;99336.25;;;8.77;88.84
16690;BME280;8458;52.220;9.884;2022-11-23T10:25:13;99343.13;;;8.79;88.92
16690;BME280;8458;52.220;9.884;2022-11-23T10:27:41;99333.13;;;8.89;87.99
16690;BME280;8458;52.220;9.884;2022-11-23T10:30:11;99330.06;;;8.90;87.84
16690;BME280;8458;52.220;9.884;2022-11-23T10:32:44;99343.59;;;8.92;87.90
16690;BME280;8458;52.220;9.884;2022-11-23T10:35:14;99344.19;;;8.89;87.79
16690;BME280;8458;52.220;9.884;2022-11-23T10:37:41;99334.25;;;8.83;87.45
16690;BME280;8458;52.220;9.884;2022-11-23T10:40:15;99334.84;;;8.85;88.04
16690;BME280;8458;52.220;9.884;2022-11-23T10:42:44;99340.88;;;8.87;88.06
16690;BME280;8458;52.220;9.884;2022-11-23T10:45:18;99338.66;;;8.89;87.00
16690;BME280;8458;52.220;9.884;2022-11-23T10:47:49;99345.03;;;8.89;86.83
16690;BME280;8458;52.220;9.884;2022-11-23T10:50:23;99356.84;;;8.95;86.78
16690;BME280;8458;52.220;9.884;2022-11-23T10:52:52;99353.00;;;8.96;86.42
16690;BME280;8458;52.220;9.884;2022-11-23T10:55:23;99343.59;;;8.97;86.80
16690;BME280;8458;52.220;9.884;2022-11-23T10:57:51;99348.06;;;8.88;85.82
16690;BME280;8458;52.220;9.884;2022-11-23T11:00:20;99352.19;;;8.90;85.62
16690;BME280;8458;52.220;9.884;2022-11-23T11:02:48;99346.94;;;8.94;85.80
16690;BME280;8458;52.220;9.884;2022-11-23T11:05:29;99348.00;;;8.98;85.52
16690;BME280;8458;52.220;9.884;2022-11-23T11:07:58;99345.22;;;9.03;85.44
16690;BME280;8458;52.220;9.884;2022-11-23T11:10:39;99342.69;;;9.07;85.37
16690;BME280;8458;52.220;9.884;2022-11-23T11:13:23;99345.69;;;9.10;85.08
16690;BME280;8458;52.220;9.884;2022-11-23T11:15:51;99343.97;;;9.20;84.54
16690;BME280;8458;52.220;9.884;2022-11-23T11:18:18;99347.78;;;9.29;84.00
16690;BME280;8458;52.220;9.884;2022-11-23T11:20:46;99338.94;;;9.27;84.21
16690;BME280;8458;52.220;9.884;2022-11-23T11:23:16;99342.22;;;9.29;84.07
16690;BME280;8458;52.220;9.884;2022-11-23T11:25:43;99328.69;;;9.27;83.81
16690;BME280;8458;52.220;9.884;2022-11-23T11:28:20;99332.09;;;9.19;84.46
16690;BME280;8458;52.220;9.884;2022-11-23T11:30:56;99331.47;;;9.27;84.72
16690;BME280;8458;52.220;9.884;2022-11-23T11:33:28;99336.22;;;9.22;84.30
16690;BME280;8458;52.220;9.884;2022-11-23T11:36:01;99321.78;;;9.30;83.63
16690;BME280;8458;52.220;9.884;2022-11-23T11:38:31;99330.84;;;9.36;83.63
16690;BME280;8458;52.220;9.884;2022-11-23T11:41:01;99325.63;;;9.29;83.87
16690;BME280;8458;52.220;9.884;2022-11-23T11:43:34;99323.97;;;9.33;84.08
16690;BME280;8458;52.220;9.884;2022-11-23T11:46:04;99331.16;;;9.29;83.93
16690;BME280;8458;52.220;9.884;2022-11-23T11:48:36;99331.69;;;9.36;83.07
16690;BME280;8458;52.220;9.884;2022-11-23T11:51:11;99332.16;;;9.43;83.81
16690;BME280;8458;52.220;9.884;2022-11-23T11:53:42;99330.41;;;9.52;83.74
16690;BME280;8458;52.220;9.884;2022-11-23T11:56:15;99328.84;;;9.41;84.67
16690;BME280;8458;52.220;9.884;2022-11-23T11:58:53;99331.91;;;9.40;84.67
16690;BME280;8458;52.220;9.884;2022-11-23T12:01:28;99321.94;;;9.44;84.41
16690;BME280;8458;52.220;9.884;2022-11-23T12:04:03;99324.47;;;9.35;85.20
16690;BME280;8458;52.220;9.884;2022-11-23T12:06:36;99326.09;;;9.41;85.04
16690;BME280;8458;52.220;9.884;2022-11-23T12:09:09;99320.63;;;9.36;85.21
16690;BME280;8458;52.220;9.884;2022-11-23T12:11:36;99315.59;;;9.38;84.21
16690;BME280;8458;52.220;9.884;2022-11-23T12:14:04;99316.72;;;9.37;84.21
16690;BME280;8458;52.220;9.884;2022-11-23T12:16:37;99314.50;;;9.39;84.43
16690;BME280;8458;52.220;9.884;2022-11-23T12:19:16;99314.97;;;9.46;84.10
16690;BME280;8458;52.220;9.884;2022-11-23T12:22:06;99308.97;;;9.39;83.56
16690;BME280;8458;52.220;9.884;2022-11-23T12:24:47;99298.38;;;9.46;84.31
16690;BME280;8458;52.220;9.884;2022-11-23T12:27:26;99298.13;;;9.43;83.90
16690;BME280;8458;52.220;9.884;2022-11-23T12:30:08;99300.03;;;9.47;84.07
16690;BME280;8458;52.220;9.884;2022-11-23T12:32:48;99299.88;;;9.63;83.60
16690;BME280;8458;52.220;9.884;2022-11-23T12:35:38;99297.75;;;9.55;83.11
16690;BME280;8458;52.220;9.884;2022-11-23T12:38:18;99287.22;;;9.57;83.16
16690;BME280;8458;52.220;9.884;2022-11-23T12:41:13;99287.72;;;9.64;83.68
16690;BME280;8458;52.220;9.884;2022-11-23T12:43:57;99280.44;;;9.68;83.02
16690;BME280;8458;52.220;9.884;2022-11-23T12:46:34;99276.63;;;9.64;82.74
16690;BME280;8458;52.220;9.884;2022-11-23T12:49:15;99282.97;;;9.64;82.77
16690;BME280;8458;52.220;9.884;2022-11-23T12:51:51;99282.16;;;9.64;82.16
16690;BME280;8458;52.220;9.884;2022-11-23T12:54:33;99281.59;;;9.67;81.72
16690;BME280;8458;52.220;9.884;2022-11-23T12:57:09;99281.03;;;9.65;81.96
16690;BME280;8458;52.220;9.884;2022-11-23T12:59:43;99292.69;;;9.62;81.49
16690;BME280;8458;52.220;9.884;2022-11-23T13:02:41;99287.22;;;9.57;80.79
16690;BME280;8458;52.220;9.884;2022-11-23T13:05:24;99288.53;;;9.64;80.81
16690;BME280;8458;52.220;9.884;2022-11-23T13:08:06;99286.84;;;9.63;80.49
16690;BME280;8458;52.220;9.884;2022-11-23T13:10:55;99286.19;;;9.77;77.80
16690;BME280;8458;52.220;9.884;2022-11-23T13:13:40;99287.56;;;9.74;78.92
16690;BME280;8458;52.220;9.884;2022-11-23T13:16:25;99283.69;;;9.75;77.56
16690;BME280;8458;52.220;9.884;2022-11-23T13:19:06;99280.06;;;9.80;77.35
16690;BME280;8458;52.220;9.884;2022-11-23T13:21:38;99286.25;;;9.72;77.21
16690;BME280;8458;52.220;9.884;2022-11-23T13:24:23;99289.81;;;9.72;77.51
16690;BME280;8458;52.220;9.884;2022-11-23T13:30:08;99276.19;;;9.81;76.28
16690;BME280;8458;52.220;9.884;2022-11-23T13:32:50;99275.09;;;9.77;76.51
16690;BME280;8458;52.220;9.884;2022-11-23T13:35:50;99273.13;;;9.82;75.63
16690;BME280;8458;52.220;9.884;2022-11-23T13:38:24;99271.53;;;9.76;75.87